sensor_id;sensor_type;location;lat;lon;timestamp;temperature;humidity
9544;DHT22;30418;51.45933468;7.33152330;2023-07-22T00:00:57;21.30;49.80
9544;DHT22;30418;51.45933468;7.33152330;2023-07-22T00:03:26;21.30;49.80
9544;DHT22;30418;51.45933468;7.33152330;2023-07-22T00:06:05;21.30;49.80
9544;DHT22;30418;51.45933468;7.33152330;2023-07-22T00:08:36;21.20;49.80
9544;DHT22;30418;51.45933468;7.33152330;2023-07-22T00:11:06;21.20;49.80
9544;DHT22;30418;51.45933468;7.33152330;2023-07-22T00:13:36;21.20;49.80
9544;DHT22;30418;51.45933468;7.33152330;2023-07-22T00:16:06;21.20;49.80
9544;DHT22;30418;51.45933468;7.33152330;2023-07-22T00:18:35;21.20;50.00
9544;DHT22;30418;51.45933468;7.33152330;2023-07-22T00:21:04;21.10;49.90
9544;DHT22;30418;51.45933468;7.33152330;2023-07-22T00:23:33;21.10;49.90
9544;DHT22;30418;51.45933468;7.33152330;2023-07-22T00:26:02;21.10;49.90
9544;DHT22;30418;51.45933468;7.33152330;2023-07-22T00:28:30;21.10;50.00
9544;DHT22;30418;51.45933468;7.33152330;2023-07-22T00:30:59;21.10;50.00
9544;DHT22;30418;51.45933468;7.33152330;2023-07-22T00:33:32;21.00;50.00
9544;DHT22;30418;51.45933468;7.33152330;2023-07-22T00:36:00;21.00;50.00
9544;DHT22;30418;51.45933468;7.33152330;2023-07-22T00:38:29;21.00;50.10
9544;DHT22;30418;51.45933468;7.33152330;2023-07-22T00:40:58;21.10;50.10
9544;DHT22;30418;51.45933468;7.33152330;2023-07-22T00:43:26;21.00;50.10
9544;DHT22;30418;51.45933468;7.33152330;2023-07-22T00:45:54;21.00;50.10
9544;DHT22;30418;51.45933468;7.33152330;2023-07-22T00:48:23;21.00;50.20
9544;DHT22;30418;51.45933468;7.33152330;2023-07-22T00:50:53;21.00;50.30
9544;DHT22;30418;51.45933468;7.33152330;2023-07-22T00:53:22;20.90;50.20
9544;DHT22;30418;51.45933468;7.33152330;2023-07-22T00:55:51;20.90;50.20
9544;DHT22;30418;51.45933468;7.33152330;2023-07-22T00:58:20;20.90;50.20
9544;DHT22;30418;51.45933468;7.33152330;2023-07-22T01:00:49;20.90;50.30
9544;DHT22;30418;51.45933468;7.33152330;2023-07-22T01:03:18;20.90;50.30
9544;DHT22;30418;51.45933468;7.33152330;2023-07-22T01:05:47;20.90;50.30
9544;DHT22;30418;51.45933468;7.33152330;2023-07-22T01:08:20;20.90;50.40
9544;DHT22;30418;51.45933468;7.33152330;2023-07-22T01:10:50;20.90;50.40
9544;DHT22;30418;51.45933468;7.33152330;2023-07-22T01:13:18;20.90;50.40
9544;DHT22;30418;51.45933468;7.33152330;2023-07-22T01:15:47;20.80;50.40
9544;DHT22;30418;51.45933468;7.33152330;2023-07-22T01:18:15;20.80;50.40
9544;DHT22;30418;51.45933468;7.33152330;2023-07-22T01:20:45;20.80;50.40
9544;DHT22;30418;51.45933468;7.33152330;2023-07-22T01:23:15;20.80;50.50
9544;DHT22;30418;51.45933468;7.33152330;2023-07-22T01:25:44;20.80;50.50
9544;DHT22;30418;51.45933468;7.33152330;2023-07-22T01:28:13;20.80;50.50
9544;DHT22;30418;51.45933468;7.33152330;2023-07-22T01:30:41;20.80;50.50
9544;DHT22;30418;51.45933468;7.33152330;2023-07-22T01:33:10;20.80;50.50
9544;DHT22;30418;51.45933468;7.33152330;2023-07-22T01:35:39;20.80;50.50
9544;DHT22;30418;51.45933468;7.33152330;2023-07-22T01:38:08;20.70;50.50
9544;DHT22;30418;51.45933468;7.33152330;2023-07-22T01:40:37;20.70;50.50
9544;DHT22;30418;51.45933468;7.33152330;2023-07-22T01:43:06;20.70;50.50
9544;DHT22;30418;51.45933468;7.33152330;2023-07-22T01:45:35;20.70;50.60
9544;DHT22;30418;51.45933468;7.33152330;2023-07-22T01:48:04;20.70;50.60
9544;DHT22;30418;51.45933468;7.33152330;2023-07-22T01:50:33;20.60;50.60
9544;DHT22;30418;51.45933468;7.33152330;2023-07-22T01:53:02;20.60;50.60
9544;DHT22;30418;51.45933468;7.33152330;2023-07-22T01:55:31;20.60;50.60
9544;DHT22;30418;51.45933468;7.33152330;2023-07-22T01:58:01;20.60;50.60
9544;DHT22;30418;51.45933468;7.33152330;2023-07-22T02:00:30;20.60;50.60
9544;DHT22;30418;51.45933468;7.33152330;2023-07-22T02:02:58;20.60;50.60
9544;DHT22;30418;51.45933468;7.33152330;2023-07-22T02:05:27;20.60;50.60
9544;DHT22;30418;51.45933468;7.33152330;2023-07-22T02:07:57;20.60;50.60
9544;DHT22;30418;51.45933468;7.33152330;2023-07-22T02:10:26;20.60;50.60
9544;DHT22;30418;51.45933468;7.33152330;2023-07-22T02:12:55;20.60;50.60
9544;DHT22;30418;51.45933468;7.33152330;2023-07-22T02:15:25;20.50;50.50
9544;DHT22;30418;51.45933468;7.33152330;2023-07-22T02:17:53;20.50;50.70
9544;DHT22;30418;51.45933468;7.33152330;2023-07-22T02:20:22;20.50;50.70
9544;DHT22;30418;51.45933468;7.33152330;2023-07-22T02:22:53;20.50;50.70
9544;DHT22;30418;51.45933468;7.33152330;2023-07-22T02:25:22;20.50;50.80
9544;DHT22;30418;51.45933468;7.33152330;2023-07-22T02:27:50;20.50;50.80
9544;DHT22;30418;51.45933468;7.33152330;2023-07-22T02:30:19;20.50;50.80
9544;DHT22;30418;51.45933468;7.33152330;2023-07-22T02:32:48;20.50;50.90
9544;DHT22;30418;51.45933468;7.33152330;2023-07-22T02:35:17;20.50;50.90
9544;DHT22;30418;51.45933468;7.33152330;2023-07-22T02:37:45;20.50;50.90
9544;DHT22;30418;51.45933468;7.33152330;2023-07-22T02:40:14;20.50;50.90
9544;DHT22;30418;51.45933468;7.33152330;2023-07-22T02:42:43;20.40;50.90
9544;DHT22;30418;51.45933468;7.33152330;2023-07-22T02:45:11;20.50;50.90
9544;DHT22;30418;51.45933468;7.33152330;2023-07-22T02:47:41;20.40;50.80
9544;DHT22;30418;51.45933468;7.33152330;2023-07-22T02:50:11;20.40;50.90
9544;DHT22;30418;51.45933468;7.33152330;2023-07-22T02:52:39;20.40;50.90
9544;DHT22;30418;51.45933468;7.33152330;2023-07-22T02:55:10;20.40;51.00
9544;DHT22;30418;51.45933468;7.33152330;2023-07-22T02:57:40;20.40;51.10
9544;DHT22;30418;51.45933468;7.33152330;2023-07-22T03:00:09;20.40;51.00
9544;DHT22;30418;51.45933468;7.33152330;2023-07-22T03:02:39;20.40;51.10
9544;DHT22;30418;51.45933468;7.33152330;2023-07-22T03:05:08;20.40;51.20
9544;DHT22;30418;51.45933468;7.33152330;2023-07-22T03:07:40;20.40;51.20
9544;DHT22;30418;51.45933468;7.33152330;2023-07-22T03:10:09;20.40;51.20
9544;DHT22;30418;51.45933468;7.33152330;2023-07-22T03:12:38;20.40;51.20
9544;DHT22;30418;51.45933468;7.33152330;2023-07-22T03:15:07;20.40;51.20
9544;DHT22;30418;51.45933468;7.33152330;2023-07-22T03:17:37;20.40;51.30
9544;DHT22;30418;51.45933468;7.33152330;2023-07-22T03:20:06;20.40;51.30
9544;DHT22;30418;51.45933468;7.33152330;2023-07-22T03:22:40;20.40;51.30
9544;DHT22;30418;51.45933468;7.33152330;2023-07-22T03:25:09;20.40;51.30
9544;DHT22;30418;51.45933468;7.33152330;2023-07-22T03:27:38;20.40;51.20
9544;DHT22;30418;51.45933468;7.33152330;2023-07-22T03:30:10;20.40;51.30
9544;DHT22;30418;51.45933468;7.33152330;2023-07-22T03:32:42;20.40;51.30
9544;DHT22;30418;51.45933468;7.33152330;2023-07-22T03:35:11;20.40;51.30
9544;DHT22;30418;51.45933468;7.33152330;2023-07-22T03:37:41;20.40;51.30
9544;DHT22;30418;51.45933468;7.33152330;2023-07-22T03:40:10;20.40;51.30
9544;DHT22;30418;51.45933468;7.33152330;2023-07-22T03:42:42;20.40;51.30
9544;DHT22;30418;51.45933468;7.33152330;2023-07-22T03:45:10;20.40;51.30
9544;DHT22;30418;51.45933468;7.33152330;2023-07-22T03:47:39;20.40;51.30
9544;DHT22;30418;51.45933468;7.33152330;2023-07-22T03:50:08;20.40;51.30
9544;DHT22;30418;51.45933468;7.33152330;2023-07-22T03:52:37;20.40;51.20
9544;DHT22;30418;51.45933468;7.33152330;2023-07-22T03:55:08;20.30;51.10
9544;DHT22;30418;51.45933468;7.33152330;2023-07-22T03:57:38;20.30;51.20
9544;DHT22;30418;51.45933468;7.33152330;2023-07-22T04:00:07;20.30;51.20
9544;DHT22;30418;51.45933468;7.33152330;2023-07-22T04:02:40;20.30;51.20
9544;DHT22;30418;51.45933468;7.33152330;2023-07-22T04:05:10;20.30;51.20
9544;DHT22;30418;51.45933468;7.33152330;2023-07-22T04:07:39;20.30;51.20
9544;DHT22;30418;51.45933468;7.33152330;2023-07-22T04:10:09;20.30;51.20
9544;DHT22;30418;51.45933468;7.33152330;2023-07-22T04:12:38;20.30;51.20
9544;DHT22;30418;51.45933468;7.33152330;2023-07-22T04:15:09;20.30;51.20
9544;DHT22;30418;51.45933468;7.33152330;2023-07-22T04:17:39;20.30;51.10
9544;DHT22;30418;51.45933468;7.33152330;2023-07-22T04:20:09;20.30;51.20
9544;DHT22;30418;51.45933468;7.33152330;2023-07-22T04:22:38;20.30;51.20
9544;DHT22;30418;51.45933468;7.33152330;2023-07-22T04:25:08;20.30;51.10
9544;DHT22;30418;51.45933468;7.33152330;2023-07-22T04:27:37;20.30;51.10
9544;DHT22;30418;51.45933468;7.33152330;2023-07-22T04:30:07;20.30;51.10
9544;DHT22;30418;51.45933468;7.33152330;2023-07-22T04:32:36;20.30;51.10
9544;DHT22;30418;51.45933468;7.33152330;2023-07-22T04:35:07;20.30;51.00
9544;DHT22;30418;51.45933468;7.33152330;2023-07-22T04:37:36;20.20;51.00
9544;DHT22;30418;51.45933468;7.33152330;2023-07-22T04:40:06;20.30;51.20
9544;DHT22;30418;51.45933468;7.33152330;2023-07-22T04:42:41;20.30;51.20
9544;DHT22;30418;51.45933468;7.33152330;2023-07-22T04:45:10;20.30;51.30
9544;DHT22;30418;51.45933468;7.33152330;2023-07-22T04:47:39;20.30;51.30
9544;DHT22;30418;51.45933468;7.33152330;2023-07-22T04:50:08;20.30;51.40
9544;DHT22;30418;51.45933468;7.33152330;2023-07-22T04:52:37;20.30;51.40
9544;DHT22;30418;51.45933468;7.33152330;2023-07-22T04:55:07;20.30;51.30
9544;DHT22;30418;51.45933468;7.33152330;2023-07-22T04:57:39;20.30;51.30
9544;DHT22;30418;51.45933468;7.33152330;2023-07-22T05:00:09;20.30;51.30
9544;DHT22;30418;51.45933468;7.33152330;2023-07-22T05:02:40;20.30;51.40
9544;DHT22;30418;51.45933468;7.33152330;2023-07-22T05:05:09;20.40;51.40
9544;DHT22;30418;51.45933468;7.33152330;2023-07-22T05:07:38;20.30;51.20
9544;DHT22;30418;51.45933468;7.33152330;2023-07-22T05:10:09;20.30;51.10
9544;DHT22;30418;51.45933468;7.33152330;2023-07-22T05:12:39;20.40;51.30
9544;DHT22;30418;51.45933468;7.33152330;2023-07-22T05:15:10;20.40;51.30
9544;DHT22;30418;51.45933468;7.33152330;2023-07-22T05:17:39;20.30;51.10
9544;DHT22;30418;51.45933468;7.33152330;2023-07-22T05:20:08;20.40;51.30
9544;DHT22;30418;51.45933468;7.33152330;2023-07-22T05:22:38;20.30;51.20
9544;DHT22;30418;51.45933468;7.33152330;2023-07-22T05:25:09;20.40;51.30
9544;DHT22;30418;51.45933468;7.33152330;2023-07-22T05:27:38;20.40;51.30
9544;DHT22;30418;51.45933468;7.33152330;2023-07-22T05:30:08;20.40;51.30
9544;DHT22;30418;51.45933468;7.33152330;2023-07-22T05:32:54;20.40;51.30
9544;DHT22;30418;51.45933468;7.33152330;2023-07-22T05:35:23;20.40;51.30
9544;DHT22;30418;51.45933468;7.33152330;2023-07-22T05:37:51;20.40;51.40
9544;DHT22;30418;51.45933468;7.33152330;2023-07-22T05:40:21;20.40;51.10
9544;DHT22;30418;51.45933468;7.33152330;2023-07-22T05:42:49;20.40;51.20
9544;DHT22;30418;51.45933468;7.33152330;2023-07-22T05:45:18;20.40;51.10
9544;DHT22;30418;51.45933468;7.33152330;2023-07-22T05:47:47;20.40;51.10
9544;DHT22;30418;51.45933468;7.33152330;2023-07-22T05:50:15;20.40;51.10
9544;DHT22;30418;51.45933468;7.33152330;2023-07-22T05:52:44;20.40;51.10
9544;DHT22;30418;51.45933468;7.33152330;2023-07-22T05:55:13;20.40;51.00
9544;DHT22;30418;51.45933468;7.33152330;2023-07-22T05:57:43;20.40;51.10
9544;DHT22;30418;51.45933468;7.33152330;2023-07-22T06:00:12;20.40;51.10
9544;DHT22;30418;51.45933468;7.33152330;2023-07-22T06:02:41;20.40;51.10
9544;DHT22;30418;51.45933468;7.33152330;2023-07-22T06:05:10;20.40;51.10
9544;DHT22;30418;51.45933468;7.33152330;2023-07-22T06:07:38;20.40;51.10
9544;DHT22;30418;51.45933468;7.33152330;2023-07-22T06:10:07;20.40;51.20
9544;DHT22;30418;51.45933468;7.33152330;2023-07-22T06:12:37;20.40;51.20
9544;DHT22;30418;51.45933468;7.33152330;2023-07-22T06:15:08;20.40;51.20
9544;DHT22;30418;51.45933468;7.33152330;2023-07-22T06:17:37;20.40;51.20
9544;DHT22;30418;51.45933468;7.33152330;2023-07-22T06:20:07;20.50;51.40
9544;DHT22;30418;51.45933468;7.33152330;2023-07-22T06:22:36;20.50;51.40
9544;DHT22;30418;51.45933468;7.33152330;2023-07-22T06:25:05;20.50;51.40
9544;DHT22;30418;51.45933468;7.33152330;2023-07-22T06:27:34;20.50;51.40
9544;DHT22;30418;51.45933468;7.33152330;2023-07-22T06:30:04;20.60;51.40
9544;DHT22;30418;51.45933468;7.33152330;2023-07-22T06:32:37;20.60;51.30
9544;DHT22;30418;51.45933468;7.33152330;2023-07-22T06:35:07;20.60;51.30
9544;DHT22;30418;51.45933468;7.33152330;2023-07-22T06:37:36;20.60;51.30
9544;DHT22;30418;51.45933468;7.33152330;2023-07-22T06:40:05;20.60;51.30
9544;DHT22;30418;51.45933468;7.33152330;2023-07-22T06:42:34;20.60;51.30
9544;DHT22;30418;51.45933468;7.33152330;2023-07-22T06:45:04;20.60;51.30
9544;DHT22;30418;51.45933468;7.33152330;2023-07-22T06:47:33;20.60;51.40
9544;DHT22;30418;51.45933468;7.33152330;2023-07-22T06:50:05;20.50;51.30
9544;DHT22;30418;51.45933468;7.33152330;2023-07-22T06:52:34;20.60;51.40
9544;DHT22;30418;51.45933468;7.33152330;2023-07-22T06:55:03;20.60;51.30
9544;DHT22;30418;51.45933468;7.33152330;2023-07-22T06:57:33;20.60;51.40
9544;DHT22;30418;51.45933468;7.33152330;2023-07-22T07:00:01;20.60;51.50
9544;DHT22;30418;51.45933468;7.33152330;2023-07-22T07:02:31;20.60;51.40
9544;DHT22;30418;51.45933468;7.33152330;2023-07-22T07:04:59;20.70;51.50
9544;DHT22;30418;51.45933468;7.33152330;2023-07-22T07:07:29;20.70;51.50
9544;DHT22;30418;51.45933468;7.33152330;2023-07-22T07:09:59;20.70;51.50
9544;DHT22;30418;51.45933468;7.33152330;2023-07-22T07:12:28;20.70;51.50
9544;DHT22;30418;51.45933468;7.33152330;2023-07-22T07:14:56;20.80;51.70
9544;DHT22;30418;51.45933468;7.33152330;2023-07-22T07:17:25;20.80;51.70
9544;DHT22;30418;51.45933468;7.33152330;2023-07-22T07:19:53;20.90;51.70
9544;DHT22;30418;51.45933468;7.33152330;2023-07-22T07:22:22;20.90;51.60
9544;DHT22;30418;51.45933468;7.33152330;2023-07-22T07:24:51;20.90;51.40
9544;DHT22;30418;51.45933468;7.33152330;2023-07-22T07:27:20;21.00;51.50
9544;DHT22;30418;51.45933468;7.33152330;2023-07-22T07:29:51;21.00;51.30
9544;DHT22;30418;51.45933468;7.33152330;2023-07-22T07:32:21;21.00;51.30
9544;DHT22;30418;51.45933468;7.33152330;2023-07-22T07:34:51;21.00;51.30
9544;DHT22;30418;51.45933468;7.33152330;2023-07-22T07:37:19;21.00;51.30
9544;DHT22;30418;51.45933468;7.33152330;2023-07-22T07:39:48;21.00;51.00
9544;DHT22;30418;51.45933468;7.33152330;2023-07-22T07:42:18;21.10;51.00
9544;DHT22;30418;51.45933468;7.33152330;2023-07-22T07:44:46;21.10;51.10
9544;DHT22;30418;51.45933468;7.33152330;2023-07-22T07:47:15;21.10;51.10
9544;DHT22;30418;51.45933468;7.33152330;2023-07-22T07:49:43;21.10;51.10
9544;DHT22;30418;51.45933468;7.33152330;2023-07-22T07:52:12;21.10;51.30
9544;DHT22;30418;51.45933468;7.33152330;2023-07-22T07:54:40;21.20;51.30
9544;DHT22;30418;51.45933468;7.33152330;2023-07-22T07:57:08;21.20;51.30
9544;DHT22;30418;51.45933468;7.33152330;2023-07-22T07:59:39;21.30;51.20
9544;DHT22;30418;51.45933468;7.33152330;2023-07-22T08:02:08;21.30;51.10
9544;DHT22;30418;51.45933468;7.33152330;2023-07-22T08:04:37;21.40;51.20
9544;DHT22;30418;51.45933468;7.33152330;2023-07-22T08:07:06;21.50;51.30
9544;DHT22;30418;51.45933468;7.33152330;2023-07-22T08:09:35;21.50;51.30
9544;DHT22;30418;51.45933468;7.33152330;2023-07-22T08:12:05;21.60;51.40
9544;DHT22;30418;51.45933468;7.33152330;2023-07-22T08:14:35;21.60;51.30
9544;DHT22;30418;51.45933468;7.33152330;2023-07-22T08:17:05;21.70;51.10
9544;DHT22;30418;51.45933468;7.33152330;2023-07-22T08:19:34;21.80;51.00
9544;DHT22;30418;51.45933468;7.33152330;2023-07-22T08:22:03;21.80;50.90
9544;DHT22;30418;51.45933468;7.33152330;2023-07-22T08:24:32;21.90;51.00
9544;DHT22;30418;51.45933468;7.33152330;2023-07-22T08:27:01;21.90;50.80
9544;DHT22;30418;51.45933468;7.33152330;2023-07-22T08:29:30;22.00;50.70
9544;DHT22;30418;51.45933468;7.33152330;2023-07-22T08:31:58;22.00;50.60
9544;DHT22;30418;51.45933468;7.33152330;2023-07-22T08:34:28;22.10;50.60
9544;DHT22;30418;51.45933468;7.33152330;2023-07-22T08:36:57;22.10;50.40
9544;DHT22;30418;51.45933468;7.33152330;2023-07-22T08:39:25;22.20;50.40
9544;DHT22;30418;51.45933468;7.33152330;2023-07-22T08:41:54;22.20;50.40
9544;DHT22;30418;51.45933468;7.33152330;2023-07-22T08:44:25;22.30;50.40
9544;DHT22;30418;51.45933468;7.33152330;2023-07-22T08:46:59;22.30;50.10
9544;DHT22;30418;51.45933468;7.33152330;2023-07-22T08:49:31;22.40;50.10
9544;DHT22;30418;51.45933468;7.33152330;2023-07-22T08:52:00;22.50;50.10
9544;DHT22;30418;51.45933468;7.33152330;2023-07-22T08:54:29;22.50;50.00
9544;DHT22;30418;51.45933468;7.33152330;2023-07-22T08:56:58;22.60;50.60
9544;DHT22;30418;51.45933468;7.33152330;2023-07-22T08:59:27;22.60;49.80
9544;DHT22;30418;51.45933468;7.33152330;2023-07-22T09:01:57;22.70;49.80
9544;DHT22;30418;51.45933468;7.33152330;2023-07-22T09:04:25;22.70;49.80
9544;DHT22;30418;51.45933468;7.33152330;2023-07-22T09:06:55;22.80;49.70
9544;DHT22;30418;51.45933468;7.33152330;2023-07-22T09:09:25;22.80;49.50
9544;DHT22;30418;51.45933468;7.33152330;2023-07-22T09:11:54;22.80;49.50
9544;DHT22;30418;51.45933468;7.33152330;2023-07-22T09:14:24;22.90;49.60
9544;DHT22;30418;51.45933468;7.33152330;2023-07-22T09:17:04;22.90;49.50
9544;DHT22;30418;51.45933468;7.33152330;2023-07-22T09:19:33;23.00;49.60
9544;DHT22;30418;51.45933468;7.33152330;2023-07-22T09:22:03;23.10;49.60
9544;DHT22;30418;51.45933468;7.33152330;2023-07-22T09:24:31;23.10;49.40
9544;DHT22;30418;51.45933468;7.33152330;2023-07-22T09:27:00;23.20;49.30
9544;DHT22;30418;51.45933468;7.33152330;2023-07-22T09:29:36;23.30;49.50
9544;DHT22;30418;51.45933468;7.33152330;2023-07-22T09:32:07;23.30;49.20
9544;DHT22;30418;51.45933468;7.33152330;2023-07-22T09:34:35;23.40;49.40
9544;DHT22;30418;51.45933468;7.33152330;2023-07-22T09:37:05;23.50;49.00
9544;DHT22;30418;51.45933468;7.33152330;2023-07-22T09:39:35;23.50;48.90
9544;DHT22;30418;51.45933468;7.33152330;2023-07-22T09:42:04;23.50;48.90
9544;DHT22;30418;51.45933468;7.33152330;2023-07-22T09:44:33;23.50;48.80
9544;DHT22;30418;51.45933468;7.33152330;2023-07-22T09:47:06;23.50;48.70
9544;DHT22;30418;51.45933468;7.33152330;2023-07-22T09:49:40;23.50;48.20
9544;DHT22;30418;51.45933468;7.33152330;2023-07-22T09:52:11;23.50;48.30
9544;DHT22;30418;51.45933468;7.33152330;2023-07-22T09:54:47;23.50;48.40
9544;DHT22;30418;51.45933468;7.33152330;2023-07-22T09:57:17;23.50;48.10
9544;DHT22;30418;51.45933468;7.33152330;2023-07-22T09:59:47;23.50;48.40
9544;DHT22;30418;51.45933468;7.33152330;2023-07-22T10:02:18;23.50;48.40
9544;DHT22;30418;51.45933468;7.33152330;2023-07-22T10:04:48;23.50;48.30
9544;DHT22;30418;51.45933468;7.33152330;2023-07-22T10:07:21;23.50;48.20
9544;DHT22;30418;51.45933468;7.33152330;2023-07-22T10:09:52;23.60;48.00
9544;DHT22;30418;51.45933468;7.33152330;2023-07-22T10:12:23;23.60;48.00
9544;DHT22;30418;51.45933468;7.33152330;2023-07-22T10:14:53;23.70;48.00
9544;DHT22;30418;51.45933468;7.33152330;2023-07-22T10:17:22;23.80;48.10
9544;DHT22;30418;51.45933468;7.33152330;2023-07-22T10:19:52;23.80;48.10
9544;DHT22;30418;51.45933468;7.33152330;2023-07-22T10:22:23;23.80;48.60
9544;DHT22;30418;51.45933468;7.33152330;2023-07-22T10:24:53;23.90;47.70
9544;DHT22;30418;51.45933468;7.33152330;2023-07-22T10:27:22;23.90;47.80
9544;DHT22;30418;51.45933468;7.33152330;2023-07-22T10:29:51;24.00;47.80
9544;DHT22;30418;51.45933468;7.33152330;2023-07-22T10:32:22;24.00;47.60
9544;DHT22;30418;51.45933468;7.33152330;2023-07-22T10:34:51;24.00;47.50
9544;DHT22;30418;51.45933468;7.33152330;2023-07-22T10:37:19;24.10;47.60
9544;DHT22;30418;51.45933468;7.33152330;2023-07-22T10:39:51;24.10;47.60
9544;DHT22;30418;51.45933468;7.33152330;2023-07-22T10:42:24;24.10;47.50
9544;DHT22;30418;51.45933468;7.33152330;2023-07-22T10:44:53;24.20;47.30
9544;DHT22;30418;51.45933468;7.33152330;2023-07-22T10:47:32;24.20;47.30
9544;DHT22;30418;51.45933468;7.33152330;2023-07-22T10:50:08;24.20;46.80
9544;DHT22;30418;51.45933468;7.33152330;2023-07-22T10:52:41;24.20;47.10
9544;DHT22;30418;51.45933468;7.33152330;2023-07-22T10:55:17;24.30;47.10
9544;DHT22;30418;51.45933468;7.33152330;2023-07-22T10:57:50;24.30;47.10
9544;DHT22;30418;51.45933468;7.33152330;2023-07-22T11:00:21;24.30;46.90
9544;DHT22;30418;51.45933468;7.33152330;2023-07-22T11:03:20;24.40;47.10
9544;DHT22;30418;51.45933468;7.33152330;2023-07-22T11:05:50;24.40;46.70
9544;DHT22;30418;51.45933468;7.33152330;2023-07-22T11:08:38;24.50;47.00
9544;DHT22;30418;51.45933468;7.33152330;2023-07-22T11:11:08;24.60;46.60
9544;DHT22;30418;51.45933468;7.33152330;2023-07-22T11:13:38;24.60;46.90
9544;DHT22;30418;51.45933468;7.33152330;2023-07-22T11:16:10;24.60;46.60
9544;DHT22;30418;51.45933468;7.33152330;2023-07-22T11:18:40;24.60;46.70
9544;DHT22;30418;51.45933468;7.33152330;2023-07-22T11:21:10;24.70;46.60
9544;DHT22;30418;51.45933468;7.33152330;2023-07-22T11:23:41;24.70;46.30
9544;DHT22;30418;51.45933468;7.33152330;2023-07-22T11:26:10;24.70;46.20
9544;DHT22;30418;51.45933468;7.33152330;2023-07-22T11:28:38;24.70;46.10
9544;DHT22;30418;51.45933468;7.33152330;2023-07-22T11:31:08;24.70;45.90
9544;DHT22;30418;51.45933468;7.33152330;2023-07-22T11:33:38;24.70;46.00
9544;DHT22;30418;51.45933468;7.33152330;2023-07-22T11:36:07;24.80;46.50
9544;DHT22;30418;51.45933468;7.33152330;2023-07-22T11:38:36;24.80;45.70
9544;DHT22;30418;51.45933468;7.33152330;2023-07-22T11:41:06;24.90;45.70
9544;DHT22;30418;51.45933468;7.33152330;2023-07-22T11:43:36;25.00;45.30
9544;DHT22;30418;51.45933468;7.33152330;2023-07-22T11:46:05;25.00;45.10
9544;DHT22;30418;51.45933468;7.33152330;2023-07-22T11:48:34;25.00;45.10
9544;DHT22;30418;51.45933468;7.33152330;2023-07-22T11:51:02;25.10;44.90
9544;DHT22;30418;51.45933468;7.33152330;2023-07-22T11:53:32;25.10;45.00
9544;DHT22;30418;51.45933468;7.33152330;2023-07-22T11:56:02;25.20;44.80
9544;DHT22;30418;51.45933468;7.33152330;2023-07-22T11:58:32;25.20;44.80
9544;DHT22;30418;51.45933468;7.33152330;2023-07-22T12:01:03;25.20;44.60
9544;DHT22;30418;51.45933468;7.33152330;2023-07-22T12:03:32;25.20;44.40
9544;DHT22;30418;51.45933468;7.33152330;2023-07-22T12:06:02;25.20;44.40
9544;DHT22;30418;51.45933468;7.33152330;2023-07-22T12:08:31;25.30;44.50
9544;DHT22;30418;51.45933468;7.33152330;2023-07-22T12:11:00;25.30;44.60
9544;DHT22;30418;51.45933468;7.33152330;2023-07-22T12:13:29;25.30;44.60
9544;DHT22;30418;51.45933468;7.33152330;2023-07-22T12:16:03;25.30;44.60
9544;DHT22;30418;51.45933468;7.33152330;2023-07-22T12:18:43;25.40;44.60
9544;DHT22;30418;51.45933468;7.33152330;2023-07-22T12:21:13;25.40;44.50
9544;DHT22;30418;51.45933468;7.33152330;2023-07-22T12:23:43;25.50;44.80
9544;DHT22;30418;51.45933468;7.33152330;2023-07-22T12:26:11;25.50;44.60
9544;DHT22;30418;51.45933468;7.33152330;2023-07-22T12:28:40;25.60;44.30
9544;DHT22;30418;51.45933468;7.33152330;2023-07-22T12:31:09;25.60;44.30
9544;DHT22;30418;51.45933468;7.33152330;2023-07-22T12:33:38;25.60;44.30
9544;DHT22;30418;51.45933468;7.33152330;2023-07-22T12:36:07;25.70;44.30
9544;DHT22;30418;51.45933468;7.33152330;2023-07-22T12:38:35;25.80;44.40
9544;DHT22;30418;51.45933468;7.33152330;2023-07-22T12:41:04;25.70;44.30
9544;DHT22;30418;51.45933468;7.33152330;2023-07-22T12:43:32;25.80;44.30
9544;DHT22;30418;51.45933468;7.33152330;2023-07-22T12:46:01;25.80;43.90
9544;DHT22;30418;51.45933468;7.33152330;2023-07-22T12:48:31;25.80;43.90
9544;DHT22;30418;51.45933468;7.33152330;2023-07-22T12:51:00;25.90;43.50
9544;DHT22;30418;51.45933468;7.33152330;2023-07-22T12:53:28;25.90;43.50
9544;DHT22;30418;51.45933468;7.33152330;2023-07-22T12:55:59;25.90;43.50
9544;DHT22;30418;51.45933468;7.33152330;2023-07-22T12:58:29;25.90;43.50
9544;DHT22;30418;51.45933468;7.33152330;2023-07-22T13:00:58;25.90;43.60
9544;DHT22;30418;51.45933468;7.33152330;2023-07-22T13:03:27;25.90;43.50
9544;DHT22;30418;51.45933468;7.33152330;2023-07-22T13:05:57;26.00;43.10
9544;DHT22;30418;51.45933468;7.33152330;2023-07-22T13:08:25;26.00;42.60
9544;DHT22;30418;51.45933468;7.33152330;2023-07-22T13:10:54;26.00;42.70
9544;DHT22;30418;51.45933468;7.33152330;2023-07-22T13:13:22;26.10;42.60
9544;DHT22;30418;51.45933468;7.33152330;2023-07-22T13:15:50;26.00;42.50
9544;DHT22;30418;51.45933468;7.33152330;2023-07-22T13:18:20;26.00;42.30
9544;DHT22;30418;51.45933468;7.33152330;2023-07-22T13:20:48;26.10;42.40
9544;DHT22;30418;51.45933468;7.33152330;2023-07-22T13:23:18;26.10;42.30
9544;DHT22;30418;51.45933468;7.33152330;2023-07-22T13:25:47;26.10;42.30
9544;DHT22;30418;51.45933468;7.33152330;2023-07-22T13:28:15;26.10;42.20
9544;DHT22;30418;51.45933468;7.33152330;2023-07-22T13:30:44;26.20;42.20
9544;DHT22;30418;51.45933468;7.33152330;2023-07-22T13:33:12;26.20;42.20
9544;DHT22;30418;51.45933468;7.33152330;2023-07-22T13:35:41;26.20;42.10
9544;DHT22;30418;51.45933468;7.33152330;2023-07-22T13:38:09;26.20;42.00
9544;DHT22;30418;51.45933468;7.33152330;2023-07-22T13:40:39;26.30;41.80
9544;DHT22;30418;51.45933468;7.33152330;2023-07-22T13:43:08;26.30;41.70
9544;DHT22;30418;51.45933468;7.33152330;2023-07-22T13:45:36;26.20;41.80
9544;DHT22;30418;51.45933468;7.33152330;2023-07-22T13:48:05;26.30;41.90